createdAt,value
2019-04-16T00:01:59.251Z,52.60
2019-04-16T00:04:35.311Z,52.60
2019-04-16T00:07:21.823Z,52.80
2019-04-16T00:10:08.173Z,52.90
2019-04-16T00:12:56.308Z,53.00
2019-04-16T00:15:25.330Z,53.30
2019-04-16T00:17:53.916Z,53.30
2019-04-16T00:20:22.426Z,53.50
2019-04-16T00:22:55.357Z,53.20
2019-04-16T00:25:23.915Z,53.10
2019-04-16T00:27:52.476Z,53.30
2019-04-16T00:30:21.042Z,53.20
2019-04-16T00:32:49.503Z,53.20
2019-04-16T00:35:18.064Z,53.20
2019-04-16T00:37:51.322Z,53.40
2019-04-16T00:40:16.843Z,53.50
2019-04-16T00:42:45.328Z,53.70
2019-04-16T00:45:14.569Z,53.90
2019-04-16T00:47:43.146Z,54.00
2019-04-16T00:50:12.155Z,54.00
2019-04-16T00:52:40.656Z,54.30
2019-04-16T00:55:13.715Z,54.30
2019-04-16T00:57:40.243Z,54.50
2019-04-16T01:00:10.393Z,54.50
2019-04-16T01:02:38.953Z,54.50
2019-04-16T01:05:07.979Z,54.50
2019-04-16T01:07:36.524Z,54.60
2019-04-16T01:10:05.828Z,54.60
2019-04-16T01:12:34.493Z,54.90
2019-04-16T01:15:03.854Z,54.70
2019-04-16T01:17:33.360Z,54.70
2019-04-16T01:20:03.365Z,55.00
2019-04-16T01:22:31.980Z,54.90
2019-04-16T01:25:00.478Z,55.10
2019-04-16T01:27:36.962Z,55.20
2019-04-16T01:30:07.936Z,55.10
2019-04-16T01:32:42.719Z,55.20
2019-04-16T01:35:18.686Z,55.20
2019-04-16T01:37:56.778Z,55.20
2019-04-16T01:40:27.664Z,55.40
2019-04-16T01:42:56.255Z,55.40
2019-04-16T01:45:29.590Z,55.60
2019-04-16T01:47:55.069Z,55.60
2019-04-16T01:50:23.632Z,55.30
2019-04-16T01:52:52.236Z,55.50
2019-04-16T01:55:25.539Z,55.80
2019-04-16T01:57:51.067Z,55.70
2019-04-16T02:00:19.897Z,56.10
2019-04-16T02:02:48.452Z,55.90
2019-04-16T02:05:17.089Z,55.90
2019-04-16T02:07:45.726Z,55.90
2019-04-16T02:10:14.588Z,55.90
2019-04-16T02:12:43.911Z,55.80
2019-04-16T02:15:14.031Z,55.70
2019-04-16T02:17:42.575Z,55.90
2019-04-16T02:20:11.678Z,56.10
2019-04-16T02:22:42.346Z,56.10
2019-04-16T02:25:10.702Z,55.80
2019-04-16T02:27:39.231Z,56.50
2019-04-16T02:30:07.966Z,56.10
2019-04-16T02:32:36.541Z,56.30
2019-04-16T02:35:06.863Z,56.70
2019-04-16T02:37:37.291Z,56.60
2019-04-16T02:40:06.924Z,57.20
2019-04-16T02:42:35.479Z,57.30
2019-04-16T02:45:04.761Z,57.40
2019-04-16T02:47:39.971Z,57.80
2019-04-16T02:50:06.068Z,58.10
2019-04-16T02:52:39.087Z,58.10
2019-04-16T02:55:27.557Z,58.20
2019-04-16T02:58:13.972Z,58.20
2019-04-16T03:00:55.998Z,58.30
2019-04-16T03:03:35.112Z,58.50
2019-04-16T03:06:03.648Z,58.60
2019-04-16T03:08:33.409Z,59.00
2019-04-16T03:11:03.194Z,59.00
2019-04-16T03:13:31.750Z,58.80
2019-04-16T03:16:18.654Z,58.90
2019-04-16T03:18:54.707Z,58.60
2019-04-16T03:21:24.555Z,59.10
2019-04-16T03:23:53.425Z,58.90
2019-04-16T03:26:21.999Z,58.80
2019-04-16T03:28:50.588Z,58.90
2019-04-16T03:31:23.237Z,59.80
2019-04-16T03:33:50.973Z,59.40
2019-04-16T03:36:19.969Z,59.00
2019-04-16T03:38:48.537Z,59.60
2019-04-16T03:41:17.079Z,59.60
2019-04-16T03:43:45.688Z,59.80
2019-04-16T03:46:14.523Z,59.30
2019-04-16T03:48:43.193Z,59.30
2019-04-16T03:51:11.756Z,59.30
2019-04-16T03:53:40.283Z,59.40
2019-04-16T03:56:08.820Z,59.40
2019-04-16T03:58:38.516Z,59.90
2019-04-16T04:01:07.655Z,59.20
2019-04-16T04:03:36.283Z,59.20
2019-04-16T04:06:06.878Z,59.00
2019-04-16T04:08:35.006Z,59.10
2019-04-16T04:11:09.073Z,59.20
2019-04-16T04:13:34.005Z,59.10
2019-04-16T04:16:02.577Z,59.00
2019-04-16T04:18:31.136Z,59.20
2019-04-16T04:20:59.742Z,59.00
2019-04-16T04:23:29.298Z,59.10
2019-04-16T04:25:57.931Z,59.00
2019-04-16T04:28:26.649Z,59.20
2019-04-16T04:30:57.638Z,59.50
2019-04-16T04:33:41.350Z,59.80
2019-04-16T04:36:10.281Z,59.80
2019-04-16T04:38:39.780Z,59.80
2019-04-16T04:41:08.531Z,60.00
2019-04-16T04:43:37.235Z,60.20
2019-04-16T04:46:05.912Z,59.90
2019-04-16T04:48:34.535Z,60.00
2019-04-16T04:51:06.631Z,59.60
2019-04-16T04:53:33.239Z,59.00
2019-04-16T04:56:01.794Z,58.50
2019-04-16T04:58:33.778Z,58.30
2019-04-16T05:01:00.620Z,58.20
2019-04-16T05:03:36.576Z,58.10
2019-04-16T05:06:06.984Z,58.00
2019-04-16T05:08:35.482Z,57.70
2019-04-16T05:11:04.038Z,57.60
2019-04-16T05:13:32.604Z,57.50
2019-04-16T05:16:01.800Z,57.10
2019-04-16T05:18:31.411Z,57.00
2019-04-16T05:20:59.958Z,57.00
2019-04-16T05:23:28.470Z,56.90
2019-04-16T05:25:57.065Z,56.50
2019-04-16T05:28:25.604Z,56.30
2019-04-16T05:30:54.071Z,55.90
2019-04-16T05:33:22.589Z,55.90
2019-04-16T05:35:51.136Z,55.70
2019-04-16T05:38:20.432Z,55.60
2019-04-16T05:40:49.924Z,55.30
2019-04-16T05:43:18.392Z,55.20
2019-04-16T05:45:46.958Z,55.00
2019-04-16T05:48:15.543Z,54.80
2019-04-16T05:50:44.313Z,54.60
2019-04-16T05:53:13.630Z,54.30
2019-04-16T05:55:44.031Z,54.10
2019-04-16T05:58:12.766Z,54.00
2019-04-16T06:00:45.769Z,53.80
2019-04-16T06:03:14.747Z,53.60
2019-04-16T06:05:43.271Z,53.80
2019-04-16T06:08:11.908Z,53.10
2019-04-16T06:10:41.033Z,52.40
2019-04-16T06:13:12.624Z,52.10
2019-04-16T06:16:00.911Z,51.70
2019-04-16T06:18:31.119Z,50.90
2019-04-16T06:21:17.524Z,50.30
2019-04-16T06:23:53.810Z,49.40
2019-04-16T06:26:39.050Z,49.60
2019-04-16T06:29:14.837Z,49.00
2019-04-16T06:31:45.063Z,48.50
2019-04-16T06:34:31.660Z,48.10
2019-04-16T06:37:01.896Z,47.40
2019-04-16T06:39:32.108Z,47.30
2019-04-16T06:42:02.272Z,46.10
2019-04-16T06:44:34.890Z,46.70
2019-04-16T06:47:03.184Z,44.70
2019-04-16T06:49:39.428Z,43.50
2019-04-16T06:52:24.479Z,42.20
2019-04-16T06:54:57.252Z,40.80
2019-04-16T06:57:43.866Z,41.00
2019-04-16T07:00:14.362Z,40.10
2019-04-16T07:03:02.697Z,38.30
2019-04-16T07:05:33.928Z,36.60
2019-04-16T07:08:09.703Z,35.60
2019-04-16T07:10:48.679Z,34.10
2019-04-16T07:13:17.224Z,32.90
2019-04-16T07:15:45.998Z,31.30
2019-04-16T07:18:14.507Z,30.50
2019-04-16T07:20:45.711Z,28.70
2019-04-16T07:23:13.268Z,26.50
2019-04-16T07:25:43.582Z,25.50
2019-04-16T07:28:19.633Z,23.80
2019-04-16T07:31:06.079Z,23.10
2019-04-16T07:33:42.163Z,22.10
2019-04-16T07:36:30.477Z,21.20
2019-04-16T07:39:09.575Z,20.10
2019-04-16T07:42:09.445Z,19.40
2019-04-16T07:44:45.781Z,18.40
2019-04-16T07:47:33.570Z,17.00
2019-04-16T07:50:14.779Z,16.30
2019-04-16T07:52:51.223Z,15.80
2019-04-16T07:55:23.665Z,16.20
2019-04-16T07:57:51.560Z,16.30
2019-04-16T08:00:20.300Z,15.80
2019-04-16T08:02:50.781Z,15.70
2019-04-16T08:05:19.067Z,15.10
2019-04-16T08:07:49.823Z,14.60
2019-04-16T08:10:18.296Z,14.90
2019-04-16T08:12:48.413Z,14.00
2019-04-16T08:15:17.231Z,14.20
2019-04-16T08:17:45.794Z,13.40
2019-04-16T08:20:14.393Z,13.80
2019-04-16T08:22:47.276Z,13.50
2019-04-16T08:25:13.171Z,13.80
2019-04-16T08:27:41.636Z,14.90
2019-04-16T08:30:12.259Z,15.10
2019-04-16T08:32:40.824Z,15.90
2019-04-16T08:35:09.756Z,17.00
2019-04-16T08:37:48.913Z,17.30
2019-04-16T08:40:12.536Z,16.90
2019-04-16T08:42:44.569Z,16.40
2019-04-16T08:45:09.965Z,15.40
2019-04-16T08:47:38.535Z,14.70
2019-04-16T08:50:07.703Z,14.40
2019-04-16T08:52:38.546Z,14.20
2019-04-16T08:55:06.697Z,13.30
2019-04-16T08:57:35.225Z,13.20
2019-04-16T09:00:08.643Z,13.20
2019-04-16T09:02:38.813Z,12.80
2019-04-16T09:05:11.127Z,12.50
2019-04-16T09:07:41.270Z,12.50
2019-04-16T09:10:18.895Z,13.00
2019-04-16T09:12:47.622Z,13.00
2019-04-16T09:15:16.623Z,13.60
2019-04-16T09:17:46.727Z,14.30
2019-04-16T09:20:16.899Z,14.50
2019-04-16T09:22:49.355Z,14.40
2019-04-16T09:25:17.243Z,13.90
2019-04-16T09:27:47.437Z,14.20
2019-04-16T09:30:18.197Z,13.80
2019-04-16T09:32:51.178Z,14.60
2019-04-16T09:35:24.091Z,14.80
2019-04-16T09:37:53.449Z,14.80
2019-04-16T09:40:23.655Z,14.30
2019-04-16T09:42:52.258Z,15.10
2019-04-16T09:45:20.902Z,15.10
2019-04-16T09:47:49.425Z,14.50
2019-04-16T09:50:18.843Z,15.20
2019-04-16T09:52:47.303Z,16.40
2019-04-16T09:55:18.877Z,16.80
2019-04-16T09:57:46.030Z,17.70
2019-04-16T10:00:20.214Z,18.90
2019-04-16T10:02:46.876Z,20.10
2019-04-16T10:05:15.590Z,22.20
2019-04-16T10:07:44.170Z,23.60
2019-04-16T10:10:12.873Z,24.20
2019-04-16T10:12:41.489Z,25.50
2019-04-16T10:15:11.001Z,26.20
2019-04-16T10:17:39.562Z,27.00
2019-04-16T10:20:08.320Z,28.00
2019-04-16T10:22:36.945Z,29.00
2019-04-16T10:25:08.622Z,29.60
2019-04-16T10:27:41.494Z,30.50
2019-04-16T10:30:18.914Z,31.40
2019-04-16T10:32:48.038Z,31.90
2019-04-16T10:35:17.366Z,33.00
2019-04-16T10:37:46.091Z,33.10
2019-04-16T10:40:31.221Z,34.10
2019-04-16T10:43:17.721Z,34.60
2019-04-16T10:46:08.253Z,35.70
2019-04-16T10:48:38.210Z,35.10
2019-04-16T10:51:08.443Z,35.80
2019-04-16T10:53:44.485Z,36.40
2019-04-16T10:56:14.711Z,36.70
2019-04-16T10:58:47.723Z,36.40
2019-04-16T11:01:36.167Z,36.40
2019-04-16T11:04:15.185Z,36.10
2019-04-16T11:06:45.402Z,36.30
2019-04-16T11:09:14.053Z,37.10
2019-04-16T11:11:42.673Z,37.90
2019-04-16T11:14:11.275Z,38.50
2019-04-16T11:16:41.457Z,38.60
2019-04-16T11:19:10.029Z,40.00
2019-04-16T11:21:38.949Z,40.70
2019-04-16T11:24:07.484Z,40.00
2019-04-16T11:26:36.057Z,39.40
2019-04-16T11:29:05.620Z,39.60
2019-04-16T11:31:34.132Z,39.40
2019-04-16T11:34:04.455Z,39.30
2019-04-16T11:36:32.985Z,40.30
2019-04-16T11:39:02.554Z,40.40
2019-04-16T11:41:31.219Z,41.40
2019-04-16T11:44:14.164Z,42.80
2019-04-16T11:46:30.169Z,44.50
2019-04-16T11:48:58.675Z,44.20
2019-04-16T11:51:27.276Z,45.80
2019-04-16T11:53:55.823Z,48.40
2019-04-16T11:56:24.418Z,48.20
2019-04-16T11:58:53.150Z,48.90
2019-04-16T12:01:32.219Z,49.30
2019-04-16T12:04:18.620Z,49.70
2019-04-16T12:06:51.761Z,50.50
2019-04-16T12:09:38.197Z,50.30
2019-04-16T12:12:11.197Z,51.50
2019-04-16T12:14:42.483Z,52.40
2019-04-16T12:17:13.332Z,53.80
2019-04-16T12:19:46.342Z,55.00
2019-04-16T12:22:28.508Z,55.40
2019-04-16T12:25:13.758Z,56.70
2019-04-16T12:27:49.897Z,56.80
2019-04-16T12:30:32.346Z,57.90
2019-04-16T12:33:07.726Z,58.10
2019-04-16T12:35:37.072Z,58.50
2019-04-16T12:38:13.248Z,59.80
2019-04-16T12:40:45.136Z,61.70
2019-04-16T12:43:31.707Z,63.80
2019-04-16T12:46:07.587Z,64.30
2019-04-16T12:48:37.752Z,64.30
2019-04-16T12:51:19.858Z,65.00
2019-04-16T12:53:55.758Z,65.10
2019-04-16T12:56:42.043Z,67.40
2019-04-16T12:59:12.451Z,67.20
2019-04-16T13:02:00.706Z,67.40
2019-04-16T13:04:45.767Z,67.30
2019-04-16T13:07:26.639Z,68.60
2019-04-16T13:09:59.571Z,68.40
2019-04-16T13:12:32.706Z,69.20
2019-04-16T13:15:07.746Z,70.30
2019-04-16T13:17:54.384Z,70.70
2019-04-16T13:20:33.688Z,71.60
2019-04-16T13:23:20.192Z,71.30
2019-04-16T13:26:02.432Z,71.50
2019-04-16T13:28:31.117Z,71.70
2019-04-16T13:30:59.996Z,72.20
2019-04-16T13:33:28.564Z,73.50
2019-04-16T13:35:57.112Z,73.60
2019-04-16T13:38:45.646Z,74.20
2019-04-16T13:41:14.211Z,74.40
2019-04-16T13:43:59.280Z,75.20
2019-04-16T13:46:29.522Z,75.30
2019-04-16T13:49:02.446Z,76.60
2019-04-16T13:51:35.491Z,76.00
2019-04-16T13:54:22.857Z,76.20
2019-04-16T13:57:09.115Z,76.90
2019-04-16T13:59:54.508Z,77.90
2019-04-16T14:02:33.883Z,78.90
2019-04-16T14:05:04.923Z,79.00
2019-04-16T14:07:33.148Z,79.70
2019-04-16T14:10:01.804Z,80.20
2019-04-16T14:12:41.801Z,80.90
2019-04-16T14:15:00.648Z,81.60
2019-04-16T14:17:29.505Z,80.70
2019-04-16T14:19:58.115Z,80.90
2019-04-16T14:22:26.702Z,81.20
2019-04-16T14:24:55.291Z,82.30
2019-04-16T14:27:23.967Z,82.50
2019-04-16T14:29:52.521Z,82.90
2019-04-16T14:32:21.112Z,82.70
2019-04-16T14:34:54.028Z,83.20
2019-04-16T14:37:22.983Z,83.40
2019-04-16T14:39:53.233Z,84.00
2019-04-16T14:42:23.039Z,84.10
2019-04-16T14:44:56.417Z,84.50
2019-04-16T14:47:25.026Z,84.30
2019-04-16T14:49:53.579Z,84.70
2019-04-16T14:52:22.205Z,83.70
2019-04-16T14:54:52.452Z,83.50
2019-04-16T14:57:21.034Z,83.90
2019-04-16T14:59:53.769Z,83.30
2019-04-16T15:02:29.965Z,84.20
2019-04-16T15:05:02.991Z,83.60
2019-04-16T15:07:33.473Z,85.00
2019-04-16T15:10:06.405Z,84.30
2019-04-16T15:12:36.619Z,83.70
2019-04-16T15:15:19.389Z,83.90
2019-04-16T15:18:05.728Z,84.50
2019-04-16T15:20:38.577Z,84.70
2019-04-16T15:23:14.832Z,84.30
2019-04-16T15:25:50.964Z,84.60
2019-04-16T15:28:27.131Z,84.30
2019-04-16T15:31:00.714Z,84.00
2019-04-16T15:33:38.991Z,84.40
2019-04-16T15:36:10.096Z,84.40
2019-04-16T15:38:49.344Z,84.50
2019-04-16T15:41:19.566Z,84.80
2019-04-16T15:43:58.556Z,84.90
2019-04-16T15:46:45.365Z,84.60
2019-04-16T15:49:15.486Z,83.80
2019-04-16T15:51:50.852Z,84.80
2019-04-16T15:54:36.572Z,84.40
2019-04-16T15:57:23.313Z,84.40
2019-04-16T15:59:53.510Z,84.30
2019-04-16T16:02:39.948Z,84.90
2019-04-16T16:05:16.464Z,85.00
2019-04-16T16:07:46.716Z,85.00
2019-04-16T16:10:16.907Z,85.40
2019-04-16T16:12:45.486Z,85.30
2019-04-16T16:15:14.346Z,85.30
2019-04-16T16:17:42.935Z,86.00
2019-04-16T16:20:12.634Z,86.00
2019-04-16T16:22:41.190Z,85.30
2019-04-16T16:25:10.172Z,85.70
2019-04-16T16:27:41.682Z,85.60
2019-04-16T16:30:12.023Z,85.70
2019-04-16T16:32:39.522Z,86.30
2019-04-16T16:35:08.251Z,86.50
2019-04-16T16:37:37.575Z,86.30
2019-04-16T16:40:07.481Z,86.20
2019-04-16T16:42:36.031Z,86.60
2019-04-16T16:45:05.995Z,86.30
2019-04-16T16:47:39.715Z,86.60
2019-04-16T16:50:10.437Z,87.00
2019-04-16T16:52:52.394Z,87.20
2019-04-16T16:55:31.599Z,87.50
2019-04-16T16:58:01.913Z,88.00
2019-04-16T17:00:50.387Z,87.90
2019-04-16T17:03:20.631Z,88.00
2019-04-16T17:05:50.425Z,88.10
2019-04-16T17:08:18.965Z,88.10
2019-04-16T17:10:47.601Z,88.30
2019-04-16T17:13:20.787Z,88.40
2019-04-16T17:15:46.385Z,88.70
2019-04-16T17:18:15.012Z,88.60
2019-04-16T17:20:43.599Z,88.70
2019-04-16T17:23:16.428Z,88.90
2019-04-16T17:25:42.423Z,88.80
2019-04-16T17:28:11.224Z,89.80
2019-04-16T17:30:39.842Z,88.70
2019-04-16T17:33:08.621Z,88.90
2019-04-16T17:35:37.245Z,89.20
2019-04-16T17:38:06.363Z,88.90
2019-04-16T17:40:58.106Z,89.00
2019-04-16T17:43:41.694Z,88.90
2019-04-16T17:46:24.461Z,89.20
2019-04-16T17:48:58.335Z,89.20
2019-04-16T17:51:44.918Z,89.20
2019-04-16T17:54:20.834Z,89.50
2019-04-16T17:56:55.426Z,89.60
2019-04-16T17:59:29.512Z,89.50
2019-04-16T18:02:00.425Z,89.40
2019-04-16T18:04:33.280Z,89.00
2019-04-16T18:07:15.737Z,89.20
2019-04-16T18:09:48.776Z,88.90
2019-04-16T18:12:37.092Z,88.90
2019-04-16T18:15:09.649Z,88.80
2019-04-16T18:17:47.213Z,89.20
2019-04-16T18:20:17.906Z,89.60
2019-04-16T18:22:57.148Z,90.00
2019-04-16T18:25:33.259Z,90.30
2019-04-16T18:28:09.327Z,90.30
2019-04-16T18:30:42.565Z,90.40
2019-04-16T18:33:21.829Z,90.20
2019-04-16T18:35:54.728Z,90.00
2019-04-16T18:38:33.864Z,89.90
2019-04-16T18:41:10.191Z,89.50
2019-04-16T18:43:56.540Z,89.40
2019-04-16T18:46:35.754Z,89.40
2019-04-16T18:49:06.331Z,89.50
2019-04-16T18:51:34.895Z,89.60
2019-04-16T18:54:03.483Z,89.80
2019-04-16T18:56:32.137Z,89.90
2019-04-16T18:59:00.939Z,90.00
2019-04-16T19:01:32.609Z,90.30
2019-04-16T19:04:01.905Z,90.00
2019-04-16T19:06:30.474Z,90.10
2019-04-16T19:09:01.826Z,90.10
2019-04-16T19:11:30.391Z,90.10
2019-04-16T19:13:58.935Z,90.10
2019-04-16T19:16:27.424Z,90.20
2019-04-16T19:18:55.999Z,90.20
2019-04-16T19:21:24.529Z,90.20
2019-04-16T19:23:53.138Z,90.20
2019-04-16T19:26:21.675Z,90.10
2019-04-16T19:28:50.139Z,90.00
2019-04-16T19:31:22.788Z,90.00
2019-04-16T19:33:50.328Z,90.20
2019-04-16T19:36:19.765Z,90.10
2019-04-16T19:38:49.194Z,90.30
2019-04-16T19:41:23.135Z,89.90
2019-04-16T19:43:48.090Z,90.00
2019-04-16T19:46:16.685Z,89.70
2019-04-16T19:48:45.214Z,89.90
2019-04-16T19:51:13.930Z,89.50
2019-04-16T19:53:44.575Z,89.60
2019-04-16T19:56:15.567Z,89.50
2019-04-16T19:58:44.221Z,89.40
2019-04-16T20:01:13.279Z,89.40
2019-04-16T20:03:43.559Z,89.70
2019-04-16T20:06:12.020Z,89.70
2019-04-16T20:08:40.508Z,89.60
2019-04-16T20:11:09.015Z,89.70
2019-04-16T20:13:37.597Z,89.50
2019-04-16T20:16:06.212Z,89.70
2019-04-16T20:18:49.961Z,89.80
2019-04-16T20:21:05.002Z,89.70
2019-04-16T20:23:33.573Z,89.80
2019-04-16T20:26:02.073Z,90.00
2019-04-16T20:28:30.619Z,90.00
2019-04-16T20:31:03.206Z,89.90
2019-04-16T20:33:29.415Z,90.00
2019-04-16T20:35:57.960Z,89.80
2019-04-16T20:38:29.295Z,89.60
2019-04-16T20:40:56.880Z,89.70
2019-04-16T20:43:25.421Z,89.60
2019-04-16T20:45:54.015Z,89.40
2019-04-16T20:48:22.565Z,89.50
2019-04-16T20:50:53.028Z,89.60
2019-04-16T20:53:21.383Z,89.50
2019-04-16T20:55:49.864Z,89.70
2019-04-16T20:58:18.396Z,89.70
2019-04-16T21:00:48.644Z,89.80
2019-04-16T21:03:22.195Z,89.70
2019-04-16T21:05:57.852Z,89.70
2019-04-16T21:08:24.062Z,89.70
2019-04-16T21:10:48.169Z,89.90
2019-04-16T21:13:16.858Z,89.40
2019-04-16T21:15:45.481Z,89.30
2019-04-16T21:18:14.063Z,89.00
2019-04-16T21:20:42.632Z,88.70
2019-04-16T21:23:11.225Z,89.10
2019-04-16T21:25:42.741Z,89.20
2019-04-16T21:28:29.534Z,89.30
2019-04-16T21:31:02.660Z,89.30
2019-04-16T21:33:35.626Z,89.20
2019-04-16T21:36:21.844Z,89.60
2019-04-16T21:39:08.392Z,89.60
2019-04-16T21:41:36.932Z,89.60
2019-04-16T21:44:05.462Z,89.70
2019-04-16T21:46:33.992Z,89.60
2019-04-16T21:49:02.582Z,89.50
2019-04-16T21:51:31.156Z,89.70
2019-04-16T21:53:59.749Z,89.70
2019-04-16T21:56:28.298Z,90.00
2019-04-16T21:58:56.768Z,90.00
2019-04-16T22:01:26.968Z,90.10
2019-04-16T22:04:02.972Z,90.10
2019-04-16T22:06:31.757Z,90.10
2019-04-16T22:09:03.297Z,90.10
2019-04-16T22:11:30.502Z,90.20
2019-04-16T22:13:59.652Z,90.20
2019-04-16T22:16:29.891Z,90.10
2019-04-16T22:18:58.921Z,90.10
2019-04-16T22:21:27.487Z,90.10
2019-04-16T22:23:56.232Z,89.90
2019-04-16T22:26:24.836Z,90.00
2019-04-16T22:28:53.328Z,90.00
2019-04-16T22:31:23.969Z,90.00
2019-04-16T22:33:52.107Z,90.00
2019-04-16T22:36:20.647Z,90.00
2019-04-16T22:38:50.817Z,89.80
2019-04-16T22:41:23.561Z,89.80
2019-04-16T22:43:52.888Z,89.90
2019-04-16T22:46:25.929Z,89.50
2019-04-16T22:48:55.697Z,89.60
2019-04-16T22:51:25.882Z,89.10
2019-04-16T22:53:54.646Z,89.80
2019-04-16T22:56:28.129Z,88.90
2019-04-16T22:58:55.262Z,88.90
2019-04-16T23:01:28.026Z,88.90
2019-04-16T23:03:56.671Z,88.60
2019-04-16T23:06:25.398Z,88.30
2019-04-16T23:08:53.927Z,88.20
2019-04-16T23:11:23.748Z,88.10
2019-04-16T23:13:52.636Z,88.20
2019-04-16T23:16:21.200Z,88.20
2019-04-16T23:18:50.117Z,88.20
2019-04-16T23:21:18.740Z,88.40
2019-04-16T23:23:47.740Z,88.70
2019-04-16T23:26:17.489Z,88.90
2019-04-16T23:28:46.080Z,88.70
2019-04-16T23:31:14.652Z,88.90
2019-04-16T23:33:43.220Z,89.80
2019-04-16T23:36:15.433Z,89.10
2019-04-16T23:38:41.996Z,90.00
2019-04-16T23:41:15.325Z,89.50
2019-04-16T23:43:45.058Z,89.80
2019-04-16T23:46:27.051Z,89.80
2019-04-16T23:49:06.172Z,89.90
2019-04-16T23:51:39.209Z,89.70
2019-04-16T23:54:12.779Z,89.60
2019-04-16T23:56:43.112Z,89.50
2019-04-16T23:59:19.115Z,89.30
